sensor_id;sensor_type;location;lat;lon;timestamp;P1;durP1;ratioP1;P2;durP2;ratioP2
29774;SDS011;16676;51.202;6.774;2023-01-15T00:01:47;7.03;;;4.10;;
29774;SDS011;16676;51.202;6.774;2023-01-15T00:05:50;5.85;;;3.92;;
29774;SDS011;16676;51.202;6.774;2023-01-15T00:09:52;4.85;;;3.72;;
29774;SDS011;16676;51.202;6.774;2023-01-15T00:13:54;4.53;;;3.90;;
29774;SDS011;16676;51.202;6.774;2023-01-15T00:17:57;5.70;;;3.75;;
29774;SDS011;16676;51.202;6.774;2023-01-15T00:22:00;4.95;;;3.83;;
29774;SDS011;16676;51.202;6.774;2023-01-15T00:26:02;6.57;;;3.92;;
29774;SDS011;16676;51.202;6.774;2023-01-15T00:30:22;6.10;;;3.72;;
29774;SDS011;16676;51.202;6.774;2023-01-15T00:34:24;4.30;;;3.60;;
29774;SDS011;16676;51.202;6.774;2023-01-15T00:38:28;4.97;;;3.90;;
29774;SDS011;16676;51.202;6.774;2023-01-15T00:42:30;4.30;;;3.50;;
29774;SDS011;16676;51.202;6.774;2023-01-15T00:46:32;4.20;;;3.63;;
29774;SDS011;16676;51.202;6.774;2023-01-15T00:50:34;7.65;;;3.47;;
29774;SDS011;16676;51.202;6.774;2023-01-15T00:54:38;4.13;;;3.60;;
29774;SDS011;16676;51.202;6.774;2023-01-15T00:58:40;5.18;;;3.78;;
29774;SDS011;16676;51.202;6.774;2023-01-15T01:02:42;4.95;;;3.63;;
29774;SDS011;16676;51.202;6.774;2023-01-15T01:06:44;5.47;;;3.47;;
29774;SDS011;16676;51.202;6.774;2023-01-15T01:10:47;3.85;;;3.28;;
29774;SDS011;16676;51.202;6.774;2023-01-15T01:14:49;4.68;;;3.15;;
29774;SDS011;16676;51.202;6.774;2023-01-15T01:18:52;3.25;;;2.95;;
29774;SDS011;16676;51.202;6.774;2023-01-15T01:22:54;3.47;;;3.17;;
29774;SDS011;16676;51.202;6.774;2023-01-15T01:26:58;4.90;;;3.25;;
29774;SDS011;16676;51.202;6.774;2023-01-15T01:31:03;3.25;;;2.92;;
29774;SDS011;16676;51.202;6.774;2023-01-15T01:35:05;5.13;;;3.22;;
29774;SDS011;16676;51.202;6.774;2023-01-15T01:39:09;5.32;;;3.72;;
29774;SDS011;16676;51.202;6.774;2023-01-15T01:43:18;3.42;;;3.08;;
29774;SDS011;16676;51.202;6.774;2023-01-15T01:47:22;3.70;;;3.20;;
29774;SDS011;16676;51.202;6.774;2023-01-15T01:51:31;3.90;;;3.13;;
29774;SDS011;16676;51.202;6.774;2023-01-15T01:55:56;4.20;;;3.00;;
29774;SDS011;16676;51.202;6.774;2023-01-15T02:00:21;2.75;;;2.53;;
29774;SDS011;16676;51.202;6.774;2023-01-15T02:04:44;3.13;;;2.78;;
29774;SDS011;16676;51.202;6.774;2023-01-15T02:09:06;3.63;;;2.80;;
29774;SDS011;16676;51.202;6.774;2023-01-15T02:13:09;4.13;;;3.00;;
29774;SDS011;16676;51.202;6.774;2023-01-15T02:22:09;3.13;;;2.67;;
29774;SDS011;16676;51.202;6.774;2023-01-15T02:31:35;2.90;;;2.60;;
29774;SDS011;16676;51.202;6.774;2023-01-15T02:35:40;2.60;;;2.40;;
29774;SDS011;16676;51.202;6.774;2023-01-15T02:39:45;3.10;;;2.72;;
29774;SDS011;16676;51.202;6.774;2023-01-15T02:43:51;3.65;;;2.88;;
29774;SDS011;16676;51.202;6.774;2023-01-15T02:47:57;3.80;;;2.53;;
29774;SDS011;16676;51.202;6.774;2023-01-15T02:52:06;3.00;;;2.60;;
29774;SDS011;16676;51.202;6.774;2023-01-15T03:01:11;2.90;;;2.60;;
29774;SDS011;16676;51.202;6.774;2023-01-15T03:05:38;3.05;;;2.55;;
29774;SDS011;16676;51.202;6.774;2023-01-15T03:10:02;3.20;;;2.33;;
29774;SDS011;16676;51.202;6.774;2023-01-15T03:14:27;2.95;;;2.42;;
29774;SDS011;16676;51.202;6.774;2023-01-15T03:18:36;4.20;;;2.35;;
29774;SDS011;16676;51.202;6.774;2023-01-15T03:22:45;2.65;;;2.28;;
29774;SDS011;16676;51.202;6.774;2023-01-15T03:26:52;4.27;;;2.40;;
29774;SDS011;16676;51.202;6.774;2023-01-15T03:30:54;4.55;;;2.10;;
29774;SDS011;16676;51.202;6.774;2023-01-15T03:34:57;2.97;;;2.50;;
29774;SDS011;16676;51.202;6.774;2023-01-15T03:39:03;2.42;;;2.20;;
29774;SDS011;16676;51.202;6.774;2023-01-15T03:43:06;2.58;;;2.13;;
29774;SDS011;16676;51.202;6.774;2023-01-15T03:47:36;2.40;;;2.00;;
29774;SDS011;16676;51.202;6.774;2023-01-15T03:51:48;2.67;;;2.22;;
29774;SDS011;16676;51.202;6.774;2023-01-15T03:56:00;2.20;;;2.00;;
29774;SDS011;16676;51.202;6.774;2023-01-15T04:00:07;3.27;;;2.57;;
29774;SDS011;16676;51.202;6.774;2023-01-15T04:04:13;2.92;;;2.15;;
29774;SDS011;16676;51.202;6.774;2023-01-15T04:08:18;5.20;;;2.40;;
29774;SDS011;16676;51.202;6.774;2023-01-15T04:12:20;3.20;;;2.10;;
29774;SDS011;16676;51.202;6.774;2023-01-15T04:16:23;2.80;;;2.17;;
29774;SDS011;16676;51.202;6.774;2023-01-15T04:20:26;2.58;;;1.80;;
29774;SDS011;16676;51.202;6.774;2023-01-15T04:24:30;2.58;;;2.05;;
29774;SDS011;16676;51.202;6.774;2023-01-15T04:28:32;2.10;;;1.85;;
29774;SDS011;16676;51.202;6.774;2023-01-15T04:32:34;2.20;;;2.00;;
29774;SDS011;16676;51.202;6.774;2023-01-15T04:36:36;2.00;;;1.73;;
29774;SDS011;16676;51.202;6.774;2023-01-15T04:40:39;4.10;;;1.85;;
29774;SDS011;16676;51.202;6.774;2023-01-15T04:44:59;3.05;;;1.98;;
29774;SDS011;16676;51.202;6.774;2023-01-15T04:49:01;2.60;;;2.10;;
29774;SDS011;16676;51.202;6.774;2023-01-15T04:53:03;3.05;;;1.92;;
29774;SDS011;16676;51.202;6.774;2023-01-15T04:57:06;2.50;;;2.20;;
29774;SDS011;16676;51.202;6.774;2023-01-15T05:01:10;2.17;;;1.77;;
29774;SDS011;16676;51.202;6.774;2023-01-15T05:05:12;2.25;;;1.80;;
29774;SDS011;16676;51.202;6.774;2023-01-15T05:09:14;2.45;;;1.80;;
29774;SDS011;16676;51.202;6.774;2023-01-15T05:13:17;2.15;;;1.80;;
29774;SDS011;16676;51.202;6.774;2023-01-15T05:17:19;1.92;;;1.70;;
29774;SDS011;16676;51.202;6.774;2023-01-15T05:21:22;2.88;;;1.98;;
29774;SDS011;16676;51.202;6.774;2023-01-15T05:25:25;2.80;;;2.00;;
29774;SDS011;16676;51.202;6.774;2023-01-15T05:29:29;2.25;;;1.58;;
29774;SDS011;16676;51.202;6.774;2023-01-15T05:33:30;3.35;;;1.90;;
29774;SDS011;16676;51.202;6.774;2023-01-15T05:37:33;2.42;;;1.75;;
29774;SDS011;16676;51.202;6.774;2023-01-15T05:41:36;1.83;;;1.67;;
29774;SDS011;16676;51.202;6.774;2023-01-15T05:45:51;2.80;;;1.60;;
29774;SDS011;16676;51.202;6.774;2023-01-15T05:49:53;3.60;;;1.73;;
29774;SDS011;16676;51.202;6.774;2023-01-15T05:53:55;2.90;;;1.45;;
29774;SDS011;16676;51.202;6.774;2023-01-15T05:57:57;1.63;;;1.52;;
29774;SDS011;16676;51.202;6.774;2023-01-15T06:02:01;2.33;;;1.88;;
29774;SDS011;16676;51.202;6.774;2023-01-15T06:06:03;2.33;;;1.45;;
29774;SDS011;16676;51.202;6.774;2023-01-15T06:10:05;3.47;;;1.73;;
29774;SDS011;16676;51.202;6.774;2023-01-15T06:14:08;1.70;;;1.40;;
29774;SDS011;16676;51.202;6.774;2023-01-15T06:18:13;2.55;;;1.60;;
29774;SDS011;16676;51.202;6.774;2023-01-15T06:27:32;2.35;;;1.50;;
29774;SDS011;16676;51.202;6.774;2023-01-15T06:31:53;2.28;;;1.45;;
29774;SDS011;16676;51.202;6.774;2023-01-15T06:36:17;2.55;;;1.50;;
29774;SDS011;16676;51.202;6.774;2023-01-15T06:40:41;2.72;;;1.60;;
29774;SDS011;16676;51.202;6.774;2023-01-15T06:50:00;2.38;;;1.40;;
29774;SDS011;16676;51.202;6.774;2023-01-15T06:54:03;3.53;;;1.50;;
29774;SDS011;16676;51.202;6.774;2023-01-15T06:58:05;2.03;;;1.67;;
29774;SDS011;16676;51.202;6.774;2023-01-15T07:02:08;2.83;;;1.52;;
29774;SDS011;16676;51.202;6.774;2023-01-15T07:06:11;3.80;;;1.30;;
29774;SDS011;16676;51.202;6.774;2023-01-15T07:10:25;1.83;;;1.40;;
29774;SDS011;16676;51.202;6.774;2023-01-15T07:14:29;2.55;;;1.65;;
29774;SDS011;16676;51.202;6.774;2023-01-15T07:18:32;3.20;;;1.73;;
29774;SDS011;16676;51.202;6.774;2023-01-15T07:22:34;2.38;;;1.50;;
29774;SDS011;16676;51.202;6.774;2023-01-15T07:32:00;3.45;;;1.58;;
29774;SDS011;16676;51.202;6.774;2023-01-15T07:36:22;2.17;;;1.35;;
29774;SDS011;16676;51.202;6.774;2023-01-15T07:40:44;2.08;;;1.30;;
29774;SDS011;16676;51.202;6.774;2023-01-15T07:45:27;2.72;;;1.30;;
29774;SDS011;16676;51.202;6.774;2023-01-15T07:50:08;1.92;;;1.30;;
29774;SDS011;16676;51.202;6.774;2023-01-15T07:54:12;1.30;;;1.10;;
29774;SDS011;16676;51.202;6.774;2023-01-15T07:58:13;4.97;;;1.60;;
29774;SDS011;16676;51.202;6.774;2023-01-15T08:02:15;2.55;;;1.20;;
29774;SDS011;16676;51.202;6.774;2023-01-15T08:06:19;2.75;;;1.23;;
29774;SDS011;16676;51.202;6.774;2023-01-15T08:10:21;3.33;;;1.23;;
29774;SDS011;16676;51.202;6.774;2023-01-15T08:14:24;3.53;;;1.17;;
29774;SDS011;16676;51.202;6.774;2023-01-15T08:18:44;2.45;;;1.20;;
29774;SDS011;16676;51.202;6.774;2023-01-15T08:22:47;2.67;;;1.15;;
29774;SDS011;16676;51.202;6.774;2023-01-15T08:26:49;2.33;;;1.27;;
29774;SDS011;16676;51.202;6.774;2023-01-15T08:30:52;2.33;;;1.00;;
29774;SDS011;16676;51.202;6.774;2023-01-15T08:34:54;2.28;;;1.30;;
29774;SDS011;16676;51.202;6.774;2023-01-15T08:38:57;3.60;;;1.30;;
29774;SDS011;16676;51.202;6.774;2023-01-15T08:42:59;2.70;;;1.15;;
29774;SDS011;16676;51.202;6.774;2023-01-15T08:47:01;2.53;;;1.15;;
29774;SDS011;16676;51.202;6.774;2023-01-15T08:51:03;6.13;;;1.20;;
29774;SDS011;16676;51.202;6.774;2023-01-15T08:55:08;1.92;;;1.10;;
29774;SDS011;16676;51.202;6.774;2023-01-15T08:59:10;3.97;;;0.47;;
29774;SDS011;16676;51.202;6.774;2023-01-15T09:03:12;3.92;;;0.68;;
29774;SDS011;16676;51.202;6.774;2023-01-15T09:07:14;2.38;;;0.50;;
29774;SDS011;16676;51.202;6.774;2023-01-15T09:11:17;3.63;;;0.70;;
29774;SDS011;16676;51.202;6.774;2023-01-15T09:15:19;3.60;;;0.65;;
29774;SDS011;16676;51.202;6.774;2023-01-15T09:19:21;2.03;;;0.50;;
29774;SDS011;16676;51.202;6.774;2023-01-15T09:23:23;2.58;;;0.65;;
29774;SDS011;16676;51.202;6.774;2023-01-15T09:27:27;2.80;;;0.80;;
29774;SDS011;16676;51.202;6.774;2023-01-15T09:31:29;3.05;;;0.80;;
29774;SDS011;16676;51.202;6.774;2023-01-15T09:35:31;2.45;;;0.65;;
29774;SDS011;16676;51.202;6.774;2023-01-15T09:39:33;3.13;;;0.80;;
29774;SDS011;16676;51.202;6.774;2023-01-15T09:43:39;3.05;;;0.80;;
29774;SDS011;16676;51.202;6.774;2023-01-15T09:48:00;1.95;;;0.60;;
29774;SDS011;16676;51.202;6.774;2023-01-15T09:52:11;2.83;;;0.60;;
29774;SDS011;16676;51.202;6.774;2023-01-15T09:56:20;2.35;;;0.80;;
29774;SDS011;16676;51.202;6.774;2023-01-15T10:00:27;3.95;;;0.70;;
29774;SDS011;16676;51.202;6.774;2023-01-15T10:04:40;2.40;;;0.82;;
29774;SDS011;16676;51.202;6.774;2023-01-15T10:08:46;1.65;;;0.47;;
29774;SDS011;16676;51.202;6.774;2023-01-15T10:12:51;3.80;;;0.88;;
29774;SDS011;16676;51.202;6.774;2023-01-15T10:16:59;3.72;;;0.77;;
29774;SDS011;16676;51.202;6.774;2023-01-15T10:21:05;2.83;;;0.88;;
29774;SDS011;16676;51.202;6.774;2023-01-15T10:25:14;4.18;;;0.77;;
29774;SDS011;16676;51.202;6.774;2023-01-15T10:29:22;2.60;;;0.75;;
29774;SDS011;16676;51.202;6.774;2023-01-15T10:33:56;2.25;;;0.60;;
29774;SDS011;16676;51.202;6.774;2023-01-15T10:38:11;3.80;;;0.70;;
29774;SDS011;16676;51.202;6.774;2023-01-15T10:42:23;7.93;;;1.35;;
29774;SDS011;16676;51.202;6.774;2023-01-15T10:46:34;9.93;;;1.45;;
29774;SDS011;16676;51.202;6.774;2023-01-15T10:50:41;8.25;;;1.60;;
29774;SDS011;16676;51.202;6.774;2023-01-15T10:54:44;5.53;;;1.23;;
29774;SDS011;16676;51.202;6.774;2023-01-15T10:58:49;6.90;;;1.50;;
29774;SDS011;16676;51.202;6.774;2023-01-15T11:02:59;5.28;;;1.15;;
29774;SDS011;16676;51.202;6.774;2023-01-15T11:07:07;8.23;;;1.27;;
29774;SDS011;16676;51.202;6.774;2023-01-15T11:11:16;6.75;;;1.52;;
29774;SDS011;16676;51.202;6.774;2023-01-15T11:15:21;9.27;;;1.40;;
29774;SDS011;16676;51.202;6.774;2023-01-15T11:19:42;10.88;;;1.65;;
29774;SDS011;16676;51.202;6.774;2023-01-15T11:23:45;9.32;;;1.20;;
29774;SDS011;16676;51.202;6.774;2023-01-15T11:27:49;9.18;;;1.15;;
29774;SDS011;16676;51.202;6.774;2023-01-15T11:31:51;6.45;;;1.20;;
29774;SDS011;16676;51.202;6.774;2023-01-15T11:35:54;7.50;;;1.13;;
29774;SDS011;16676;51.202;6.774;2023-01-15T11:39:59;13.10;;;1.75;;
29774;SDS011;16676;51.202;6.774;2023-01-15T11:44:08;7.95;;;1.58;;
29774;SDS011;16676;51.202;6.774;2023-01-15T11:48:28;8.32;;;1.20;;
29774;SDS011;16676;51.202;6.774;2023-01-15T11:52:47;4.85;;;1.00;;
29774;SDS011;16676;51.202;6.774;2023-01-15T11:56:53;7.72;;;1.25;;
29774;SDS011;16676;51.202;6.774;2023-01-15T12:00:56;7.38;;;1.10;;
29774;SDS011;16676;51.202;6.774;2023-01-15T12:04:59;8.98;;;1.10;;
29774;SDS011;16676;51.202;6.774;2023-01-15T12:09:04;6.00;;;1.00;;
29774;SDS011;16676;51.202;6.774;2023-01-15T12:13:19;3.40;;;0.70;;
29774;SDS011;16676;51.202;6.774;2023-01-15T12:17:31;4.40;;;0.85;;
29774;SDS011;16676;51.202;6.774;2023-01-15T12:21:51;4.82;;;1.30;;
29774;SDS011;16676;51.202;6.774;2023-01-15T12:26:12;5.43;;;0.98;;
29774;SDS011;16676;51.202;6.774;2023-01-15T12:30:24;3.38;;;0.77;;
29774;SDS011;16676;51.202;6.774;2023-01-15T12:34:51;4.47;;;0.85;;
29774;SDS011;16676;51.202;6.774;2023-01-15T12:38:57;3.40;;;0.90;;
29774;SDS011;16676;51.202;6.774;2023-01-15T12:43:00;4.45;;;0.73;;
29774;SDS011;16676;51.202;6.774;2023-01-15T12:47:23;3.08;;;0.60;;
29774;SDS011;16676;51.202;6.774;2023-01-15T12:51:31;5.03;;;1.08;;
29774;SDS011;16676;51.202;6.774;2023-01-15T12:55:37;3.17;;;0.80;;
29774;SDS011;16676;51.202;6.774;2023-01-15T12:59:43;7.60;;;1.17;;
29774;SDS011;16676;51.202;6.774;2023-01-15T13:08:00;3.85;;;0.80;;
29774;SDS011;16676;51.202;6.774;2023-01-15T13:12:09;2.27;;;0.70;;
29774;SDS011;16676;51.202;6.774;2023-01-15T13:16:15;3.23;;;0.93;;
29774;SDS011;16676;51.202;6.774;2023-01-15T13:20:26;4.07;;;0.90;;
29774;SDS011;16676;51.202;6.774;2023-01-15T13:29:11;2.50;;;0.77;;
29774;SDS011;16676;51.202;6.774;2023-01-15T13:33:22;2.42;;;0.70;;
29774;SDS011;16676;51.202;6.774;2023-01-15T13:37:30;2.70;;;0.80;;
29774;SDS011;16676;51.202;6.774;2023-01-15T13:41:34;2.83;;;0.55;;
29774;SDS011;16676;51.202;6.774;2023-01-15T13:45:53;4.38;;;0.90;;
29774;SDS011;16676;51.202;6.774;2023-01-15T13:49:57;7.85;;;1.10;;
29774;SDS011;16676;51.202;6.774;2023-01-15T13:54:08;2.65;;;0.75;;
29774;SDS011;16676;51.202;6.774;2023-01-15T13:58:15;4.00;;;0.77;;
29774;SDS011;16676;51.202;6.774;2023-01-15T14:02:24;3.17;;;0.70;;
29774;SDS011;16676;51.202;6.774;2023-01-15T14:06:38;4.07;;;0.77;;
29774;SDS011;16676;51.202;6.774;2023-01-15T14:10:43;6.15;;;1.10;;
29774;SDS011;16676;51.202;6.774;2023-01-15T14:14:54;7.38;;;1.00;;
29774;SDS011;16676;51.202;6.774;2023-01-15T14:19:30;8.05;;;0.98;;
29774;SDS011;16676;51.202;6.774;2023-01-15T14:23:52;8.63;;;1.17;;
29774;SDS011;16676;51.202;6.774;2023-01-15T14:28:12;7.07;;;1.05;;
29774;SDS011;16676;51.202;6.774;2023-01-15T14:32:30;5.80;;;1.02;;
29774;SDS011;16676;51.202;6.774;2023-01-15T14:36:45;7.78;;;1.02;;
29774;SDS011;16676;51.202;6.774;2023-01-15T14:40:59;6.55;;;0.90;;
29774;SDS011;16676;51.202;6.774;2023-01-15T14:45:06;6.38;;;0.80;;
29774;SDS011;16676;51.202;6.774;2023-01-15T14:49:30;8.27;;;0.95;;
29774;SDS011;16676;51.202;6.774;2023-01-15T14:54:05;12.23;;;1.10;;
29774;SDS011;16676;51.202;6.774;2023-01-15T14:58:35;3.30;;;0.73;;
29774;SDS011;16676;51.202;6.774;2023-01-15T15:03:04;5.50;;;0.98;;
29774;SDS011;16676;51.202;6.774;2023-01-15T15:07:38;5.65;;;0.93;;
29774;SDS011;16676;51.202;6.774;2023-01-15T15:11:44;5.40;;;0.82;;
29774;SDS011;16676;51.202;6.774;2023-01-15T15:16:07;3.53;;;0.90;;
29774;SDS011;16676;51.202;6.774;2023-01-15T15:20:23;5.05;;;0.73;;
29774;SDS011;16676;51.202;6.774;2023-01-15T15:24:32;3.67;;;0.90;;
29774;SDS011;16676;51.202;6.774;2023-01-15T15:28:35;2.92;;;0.70;;
29774;SDS011;16676;51.202;6.774;2023-01-15T15:32:37;3.63;;;0.80;;
29774;SDS011;16676;51.202;6.774;2023-01-15T15:36:43;6.45;;;0.90;;
29774;SDS011;16676;51.202;6.774;2023-01-15T15:40:47;4.60;;;1.00;;
29774;SDS011;16676;51.202;6.774;2023-01-15T15:44:52;4.65;;;0.70;;
29774;SDS011;16676;51.202;6.774;2023-01-15T15:49:11;4.07;;;0.60;;
29774;SDS011;16676;51.202;6.774;2023-01-15T15:53:16;3.38;;;0.70;;
29774;SDS011;16676;51.202;6.774;2023-01-15T15:57:18;3.33;;;0.75;;
29774;SDS011;16676;51.202;6.774;2023-01-15T16:01:21;3.65;;;0.60;;
29774;SDS011;16676;51.202;6.774;2023-01-15T16:05:24;7.97;;;1.25;;
29774;SDS011;16676;51.202;6.774;2023-01-15T16:09:29;4.05;;;1.55;;
29774;SDS011;16676;51.202;6.774;2023-01-15T16:13:33;6.18;;;2.17;;
29774;SDS011;16676;51.202;6.774;2023-01-15T16:17:39;7.30;;;2.15;;
29774;SDS011;16676;51.202;6.774;2023-01-15T16:21:42;5.78;;;2.10;;
29774;SDS011;16676;51.202;6.774;2023-01-15T16:25:53;12.05;;;2.92;;
29774;SDS011;16676;51.202;6.774;2023-01-15T16:29:58;8.63;;;2.80;;
29774;SDS011;16676;51.202;6.774;2023-01-15T16:34:00;10.82;;;2.85;;
29774;SDS011;16676;51.202;6.774;2023-01-15T16:38:04;17.40;;;2.92;;
29774;SDS011;16676;51.202;6.774;2023-01-15T16:42:21;15.23;;;2.92;;
29774;SDS011;16676;51.202;6.774;2023-01-15T16:46:26;14.02;;;2.50;;
29774;SDS011;16676;51.202;6.774;2023-01-15T16:50:32;22.20;;;3.08;;
29774;SDS011;16676;51.202;6.774;2023-01-15T16:54:42;9.25;;;1.75;;
29774;SDS011;16676;51.202;6.774;2023-01-15T16:58:47;10.00;;;1.80;;
29774;SDS011;16676;51.202;6.774;2023-01-15T17:02:49;6.50;;;1.33;;
29774;SDS011;16676;51.202;6.774;2023-01-15T17:06:55;4.28;;;1.23;;
29774;SDS011;16676;51.202;6.774;2023-01-15T17:11:00;2.92;;;0.80;;
29774;SDS011;16676;51.202;6.774;2023-01-15T17:19:41;9.20;;;1.10;;
29774;SDS011;16676;51.202;6.774;2023-01-15T17:23:44;4.60;;;0.98;;
29774;SDS011;16676;51.202;6.774;2023-01-15T17:27:46;5.80;;;1.10;;
29774;SDS011;16676;51.202;6.774;2023-01-15T17:31:50;7.85;;;1.10;;
29774;SDS011;16676;51.202;6.774;2023-01-15T17:35:52;5.35;;;1.20;;
29774;SDS011;16676;51.202;6.774;2023-01-15T17:39:55;2.22;;;0.88;;
29774;SDS011;16676;51.202;6.774;2023-01-15T17:43:58;4.82;;;0.88;;
29774;SDS011;16676;51.202;6.774;2023-01-15T17:48:01;4.00;;;0.73;;
29774;SDS011;16676;51.202;6.774;2023-01-15T17:56:20;3.33;;;0.70;;
29774;SDS011;16676;51.202;6.774;2023-01-15T18:00:40;5.40;;;1.05;;
29774;SDS011;16676;51.202;6.774;2023-01-15T18:05:01;4.10;;;0.88;;
29774;SDS011;16676;51.202;6.774;2023-01-15T18:09:21;3.20;;;0.93;;
29774;SDS011;16676;51.202;6.774;2023-01-15T18:13:24;6.35;;;1.30;;
29774;SDS011;16676;51.202;6.774;2023-01-15T18:17:25;4.28;;;0.85;;
29774;SDS011;16676;51.202;6.774;2023-01-15T18:21:29;1.58;;;0.70;;
29774;SDS011;16676;51.202;6.774;2023-01-15T18:25:32;4.68;;;0.70;;
29774;SDS011;16676;51.202;6.774;2023-01-15T18:29:34;1.58;;;0.60;;
29774;SDS011;16676;51.202;6.774;2023-01-15T18:33:39;2.85;;;0.98;;
29774;SDS011;16676;51.202;6.774;2023-01-15T18:37:42;4.20;;;0.73;;
29774;SDS011;16676;51.202;6.774;2023-01-15T18:41:44;1.95;;;0.50;;
29774;SDS011;16676;51.202;6.774;2023-01-15T18:46:04;3.53;;;0.90;;
29774;SDS011;16676;51.202;6.774;2023-01-15T18:50:24;4.40;;;0.55;;
29774;SDS011;16676;51.202;6.774;2023-01-15T18:54:27;3.30;;;0.68;;
29774;SDS011;16676;51.202;6.774;2023-01-15T18:58:29;2.60;;;0.80;;
29774;SDS011;16676;51.202;6.774;2023-01-15T19:02:31;1.60;;;0.52;;
29774;SDS011;16676;51.202;6.774;2023-01-15T19:06:33;3.75;;;0.95;;
29774;SDS011;16676;51.202;6.774;2023-01-15T19:10:37;2.13;;;0.70;;
29774;SDS011;16676;51.202;6.774;2023-01-15T19:14:38;3.00;;;0.77;;
29774;SDS011;16676;51.202;6.774;2023-01-15T19:18:58;2.67;;;0.80;;
29774;SDS011;16676;51.202;6.774;2023-01-15T19:23:00;2.55;;;0.90;;
29774;SDS011;16676;51.202;6.774;2023-01-15T19:27:05;1.80;;;0.63;;
29774;SDS011;16676;51.202;6.774;2023-01-15T19:31:07;1.92;;;1.00;;
29774;SDS011;16676;51.202;6.774;2023-01-15T19:35:27;2.17;;;0.63;;
29774;SDS011;16676;51.202;6.774;2023-01-15T19:39:29;3.08;;;0.88;;
29774;SDS011;16676;51.202;6.774;2023-01-15T19:43:33;2.28;;;0.68;;
29774;SDS011;16676;51.202;6.774;2023-01-15T19:47:52;3.53;;;0.68;;
29774;SDS011;16676;51.202;6.774;2023-01-15T19:52:12;1.48;;;0.50;;
29774;SDS011;16676;51.202;6.774;2023-01-15T19:56:31;2.22;;;0.70;;
29774;SDS011;16676;51.202;6.774;2023-01-15T20:00:35;1.75;;;0.52;;
29774;SDS011;16676;51.202;6.774;2023-01-15T20:04:38;2.55;;;0.85;;
29774;SDS011;16676;51.202;6.774;2023-01-15T20:08:40;2.35;;;0.70;;
29774;SDS011;16676;51.202;6.774;2023-01-15T20:12:42;2.22;;;0.55;;
29774;SDS011;16676;51.202;6.774;2023-01-15T20:17:03;3.28;;;0.80;;
29774;SDS011;16676;51.202;6.774;2023-01-15T20:21:05;1.55;;;0.63;;
29774;SDS011;16676;51.202;6.774;2023-01-15T20:25:07;2.88;;;0.93;;
29774;SDS011;16676;51.202;6.774;2023-01-15T20:29:10;3.60;;;0.80;;
29774;SDS011;16676;51.202;6.774;2023-01-15T20:33:13;3.13;;;0.60;;
29774;SDS011;16676;51.202;6.774;2023-01-15T20:37:15;2.55;;;0.73;;
29774;SDS011;16676;51.202;6.774;2023-01-15T20:41:17;3.28;;;0.82;;
29774;SDS011;16676;51.202;6.774;2023-01-15T20:45:37;2.58;;;0.70;;
29774;SDS011;16676;51.202;6.774;2023-01-15T20:49:41;4.05;;;0.80;;
29774;SDS011;16676;51.202;6.774;2023-01-15T20:53:43;2.75;;;0.95;;
29774;SDS011;16676;51.202;6.774;2023-01-15T20:57:45;6.78;;;1.25;;
29774;SDS011;16676;51.202;6.774;2023-01-15T21:01:47;20.70;;;4.50;;
29774;SDS011;16676;51.202;6.774;2023-01-15T21:05:50;14.57;;;4.25;;
29774;SDS011;16676;51.202;6.774;2023-01-15T21:13:58;17.27;;;4.80;;
29774;SDS011;16676;51.202;6.774;2023-01-15T21:18:00;14.15;;;4.20;;
29774;SDS011;16676;51.202;6.774;2023-01-15T21:22:03;12.23;;;3.92;;
29774;SDS011;16676;51.202;6.774;2023-01-15T21:26:05;9.05;;;3.88;;
29774;SDS011;16676;51.202;6.774;2023-01-15T21:30:08;11.38;;;3.78;;
29774;SDS011;16676;51.202;6.774;2023-01-15T21:34:10;12.88;;;3.55;;
29774;SDS011;16676;51.202;6.774;2023-01-15T21:38:14;10.43;;;3.92;;
29774;SDS011;16676;51.202;6.774;2023-01-15T21:42:17;10.98;;;3.67;;
29774;SDS011;16676;51.202;6.774;2023-01-15T21:46:37;10.55;;;3.50;;
29774;SDS011;16676;51.202;6.774;2023-01-15T21:50:39;12.48;;;3.47;;
29774;SDS011;16676;51.202;6.774;2023-01-15T21:54:42;11.80;;;3.90;;
29774;SDS011;16676;51.202;6.774;2023-01-15T21:58:45;12.30;;;3.03;;
29774;SDS011;16676;51.202;6.774;2023-01-15T22:02:47;8.95;;;3.50;;
29774;SDS011;16676;51.202;6.774;2023-01-15T22:06:49;9.27;;;3.47;;
29774;SDS011;16676;51.202;6.774;2023-01-15T22:10:52;11.00;;;3.15;;
29774;SDS011;16676;51.202;6.774;2023-01-15T22:14:54;10.95;;;3.38;;
29774;SDS011;16676;51.202;6.774;2023-01-15T22:18:57;9.75;;;3.03;;
29774;SDS011;16676;51.202;6.774;2023-01-15T22:22:58;8.85;;;2.67;;
29774;SDS011;16676;51.202;6.774;2023-01-15T22:27:02;9.65;;;2.92;;
29774;SDS011;16676;51.202;6.774;2023-01-15T22:31:05;8.02;;;2.92;;
29774;SDS011;16676;51.202;6.774;2023-01-15T22:35:08;8.02;;;2.38;;
29774;SDS011;16676;51.202;6.774;2023-01-15T22:39:10;10.43;;;2.80;;
29774;SDS011;16676;51.202;6.774;2023-01-15T22:43:13;5.93;;;2.60;;
29774;SDS011;16676;51.202;6.774;2023-01-15T22:47:15;7.00;;;2.30;;
29774;SDS011;16676;51.202;6.774;2023-01-15T22:51:18;7.10;;;2.63;;
29774;SDS011;16676;51.202;6.774;2023-01-15T22:55:20;7.35;;;2.80;;
29774;SDS011;16676;51.202;6.774;2023-01-15T22:59:23;5.38;;;2.40;;
29774;SDS011;16676;51.202;6.774;2023-01-15T23:03:25;8.85;;;2.75;;
29774;SDS011;16676;51.202;6.774;2023-01-15T23:07:27;7.78;;;2.47;;
29774;SDS011;16676;51.202;6.774;2023-01-15T23:11:29;7.50;;;2.22;;
29774;SDS011;16676;51.202;6.774;2023-01-15T23:15:32;8.75;;;2.63;;
29774;SDS011;16676;51.202;6.774;2023-01-15T23:19:34;5.80;;;2.63;;
29774;SDS011;16676;51.202;6.774;2023-01-15T23:23:36;6.75;;;2.42;;
29774;SDS011;16676;51.202;6.774;2023-01-15T23:27:39;8.93;;;2.38;;
29774;SDS011;16676;51.202;6.774;2023-01-15T23:31:42;8.60;;;1.95;;
29774;SDS011;16676;51.202;6.774;2023-01-15T23:35:44;6.07;;;2.25;;
29774;SDS011;16676;51.202;6.774;2023-01-15T23:39:46;5.88;;;1.88;;
29774;SDS011;16676;51.202;6.774;2023-01-15T23:43:48;6.57;;;2.17;;
29774;SDS011;16676;51.202;6.774;2023-01-15T23:48:09;4.93;;;1.85;;
29774;SDS011;16676;51.202;6.774;2023-01-15T23:52:11;7.82;;;2.00;;
29774;SDS011;16676;51.202;6.774;2023-01-15T23:56:13;5.32;;;1.80;;
